sensor_id;sensor_type;location;lat;lon;timestamp;P1;durP1;ratioP1;P2;durP2;ratioP2
71777;SDS011;59609;52.430;4.668;2024-01-11T00:02:03;19.10;;;7.32;;
71777;SDS011;59609;52.430;4.668;2024-01-11T00:04:28;15.57;;;7.00;;
71777;SDS011;59609;52.430;4.668;2024-01-11T00:06:54;16.52;;;7.05;;
71777;SDS011;59609;52.430;4.668;2024-01-11T00:09:19;18.17;;;7.60;;
71777;SDS011;59609;52.430;4.668;2024-01-11T00:11:44;17.77;;;7.60;;
71777;SDS011;59609;52.430;4.668;2024-01-11T00:14:10;17.10;;;8.00;;
71777;SDS011;59609;52.430;4.668;2024-01-11T00:16:35;19.48;;;7.53;;
71777;SDS011;59609;52.430;4.668;2024-01-11T00:19:01;16.63;;;6.80;;
71777;SDS011;59609;52.430;4.668;2024-01-11T00:21:26;20.92;;;7.85;;
71777;SDS011;59609;52.430;4.668;2024-01-11T00:23:51;20.27;;;7.47;;
71777;SDS011;59609;52.430;4.668;2024-01-11T00:26:17;20.38;;;8.27;;
71777;SDS011;59609;52.430;4.668;2024-01-11T00:28:42;18.05;;;7.10;;
71777;SDS011;59609;52.430;4.668;2024-01-11T00:31:07;19.88;;;6.78;;
71777;SDS011;59609;52.430;4.668;2024-01-11T00:33:33;20.35;;;8.40;;
71777;SDS011;59609;52.430;4.668;2024-01-11T00:35:58;20.50;;;7.82;;
71777;SDS011;59609;52.430;4.668;2024-01-11T00:38:24;22.92;;;8.05;;
71777;SDS011;59609;52.430;4.668;2024-01-11T00:40:49;18.17;;;7.72;;
71777;SDS011;59609;52.430;4.668;2024-01-11T00:43:14;21.63;;;8.80;;
71777;SDS011;59609;52.430;4.668;2024-01-11T00:45:40;20.30;;;8.07;;
71777;SDS011;59609;52.430;4.668;2024-01-11T00:48:05;21.15;;;8.02;;
71777;SDS011;59609;52.430;4.668;2024-01-11T00:50:31;22.30;;;8.30;;
71777;SDS011;59609;52.430;4.668;2024-01-11T00:52:57;23.77;;;9.23;;
71777;SDS011;59609;52.430;4.668;2024-01-11T00:55:22;20.23;;;8.20;;
71777;SDS011;59609;52.430;4.668;2024-01-11T00:57:49;19.02;;;7.85;;
71777;SDS011;59609;52.430;4.668;2024-01-11T01:00:15;19.17;;;7.63;;
71777;SDS011;59609;52.430;4.668;2024-01-11T01:02:41;25.33;;;8.63;;
71777;SDS011;59609;52.430;4.668;2024-01-11T01:05:07;23.67;;;10.32;;
71777;SDS011;59609;52.430;4.668;2024-01-11T01:07:33;22.50;;;8.98;;
71777;SDS011;59609;52.430;4.668;2024-01-11T01:09:58;22.92;;;8.50;;
71777;SDS011;59609;52.430;4.668;2024-01-11T01:12:23;23.27;;;8.80;;
71777;SDS011;59609;52.430;4.668;2024-01-11T01:14:52;20.60;;;8.63;;
71777;SDS011;59609;52.430;4.668;2024-01-11T01:17:17;21.80;;;9.27;;
71777;SDS011;59609;52.430;4.668;2024-01-11T01:19:43;21.40;;;9.40;;
71777;SDS011;59609;52.430;4.668;2024-01-11T01:22:09;23.45;;;9.68;;
71777;SDS011;59609;52.430;4.668;2024-01-11T01:24:34;22.42;;;8.98;;
71777;SDS011;59609;52.430;4.668;2024-01-11T01:27:00;21.33;;;8.93;;
71777;SDS011;59609;52.430;4.668;2024-01-11T01:29:25;23.88;;;8.98;;
71777;SDS011;59609;52.430;4.668;2024-01-11T01:31:51;23.13;;;9.65;;
71777;SDS011;59609;52.430;4.668;2024-01-11T01:34:17;21.98;;;8.32;;
71777;SDS011;59609;52.430;4.668;2024-01-11T01:36:42;22.35;;;8.98;;
71777;SDS011;59609;52.430;4.668;2024-01-11T01:39:07;23.77;;;9.05;;
71777;SDS011;59609;52.430;4.668;2024-01-11T01:41:33;21.17;;;9.15;;
71777;SDS011;59609;52.430;4.668;2024-01-11T01:43:58;24.25;;;9.05;;
71777;SDS011;59609;52.430;4.668;2024-01-11T01:46:24;21.95;;;9.02;;
71777;SDS011;59609;52.430;4.668;2024-01-11T01:48:51;22.25;;;8.75;;
71777;SDS011;59609;52.430;4.668;2024-01-11T01:51:18;26.13;;;9.82;;
71777;SDS011;59609;52.430;4.668;2024-01-11T01:53:44;23.33;;;10.02;;
71777;SDS011;59609;52.430;4.668;2024-01-11T01:56:10;21.83;;;9.20;;
71777;SDS011;59609;52.430;4.668;2024-01-11T01:58:35;25.30;;;9.55;;
71777;SDS011;59609;52.430;4.668;2024-01-11T02:01:01;25.50;;;9.50;;
71777;SDS011;59609;52.430;4.668;2024-01-11T02:03:27;23.73;;;10.23;;
71777;SDS011;59609;52.430;4.668;2024-01-11T02:05:54;26.25;;;9.45;;
71777;SDS011;59609;52.430;4.668;2024-01-11T02:08:21;20.98;;;8.73;;
71777;SDS011;59609;52.430;4.668;2024-01-11T02:10:48;25.90;;;10.43;;
71777;SDS011;59609;52.430;4.668;2024-01-11T02:13:14;25.73;;;10.07;;
71777;SDS011;59609;52.430;4.668;2024-01-11T02:15:40;27.17;;;9.88;;
71777;SDS011;59609;52.430;4.668;2024-01-11T02:18:05;25.40;;;9.18;;
71777;SDS011;59609;52.430;4.668;2024-01-11T02:20:31;24.77;;;9.45;;
71777;SDS011;59609;52.430;4.668;2024-01-11T02:22:58;25.80;;;9.38;;
71777;SDS011;59609;52.430;4.668;2024-01-11T02:25:29;24.95;;;9.95;;
71777;SDS011;59609;52.430;4.668;2024-01-11T02:27:55;26.20;;;9.98;;
71777;SDS011;59609;52.430;4.668;2024-01-11T02:30:20;25.08;;;10.90;;
71777;SDS011;59609;52.430;4.668;2024-01-11T02:32:46;27.77;;;9.25;;
71777;SDS011;59609;52.430;4.668;2024-01-11T02:35:14;23.92;;;9.80;;
71777;SDS011;59609;52.430;4.668;2024-01-11T02:37:40;22.48;;;9.05;;
71777;SDS011;59609;52.430;4.668;2024-01-11T02:40:06;29.85;;;10.98;;
71777;SDS011;59609;52.430;4.668;2024-01-11T02:42:33;24.48;;;10.20;;
71777;SDS011;59609;52.430;4.668;2024-01-11T02:44:59;25.27;;;10.43;;
71777;SDS011;59609;52.430;4.668;2024-01-11T02:47:24;28.48;;;11.10;;
71777;SDS011;59609;52.430;4.668;2024-01-11T02:49:50;29.73;;;10.93;;
71777;SDS011;59609;52.430;4.668;2024-01-11T02:52:16;25.60;;;11.32;;
71777;SDS011;59609;52.430;4.668;2024-01-11T02:54:41;25.08;;;9.63;;
71777;SDS011;59609;52.430;4.668;2024-01-11T02:57:06;31.42;;;11.52;;
71777;SDS011;59609;52.430;4.668;2024-01-11T02:59:32;28.50;;;10.63;;
71777;SDS011;59609;52.430;4.668;2024-01-11T03:01:57;27.88;;;9.77;;
71777;SDS011;59609;52.430;4.668;2024-01-11T03:04:23;29.95;;;10.75;;
71777;SDS011;59609;52.430;4.668;2024-01-11T03:06:48;31.35;;;11.32;;
71777;SDS011;59609;52.430;4.668;2024-01-11T03:09:13;27.85;;;11.55;;
71777;SDS011;59609;52.430;4.668;2024-01-11T03:11:39;27.65;;;10.90;;
71777;SDS011;59609;52.430;4.668;2024-01-11T03:14:04;26.30;;;11.77;;
71777;SDS011;59609;52.430;4.668;2024-01-11T03:16:29;31.33;;;11.57;;
71777;SDS011;59609;52.430;4.668;2024-01-11T03:18:55;32.55;;;12.18;;
71777;SDS011;59609;52.430;4.668;2024-01-11T03:21:20;30.20;;;11.13;;
71777;SDS011;59609;52.430;4.668;2024-01-11T03:23:46;31.27;;;11.15;;
71777;SDS011;59609;52.430;4.668;2024-01-11T03:26:15;31.00;;;11.65;;
71777;SDS011;59609;52.430;4.668;2024-01-11T03:28:42;29.27;;;11.80;;
71777;SDS011;59609;52.430;4.668;2024-01-11T03:31:08;29.50;;;11.68;;
71777;SDS011;59609;52.430;4.668;2024-01-11T03:33:34;28.10;;;11.05;;
71777;SDS011;59609;52.430;4.668;2024-01-11T03:36:05;31.13;;;11.77;;
71777;SDS011;59609;52.430;4.668;2024-01-11T03:38:32;29.75;;;12.23;;
71777;SDS011;59609;52.430;4.668;2024-01-11T03:40:57;27.70;;;11.02;;
71777;SDS011;59609;52.430;4.668;2024-01-11T03:43:22;33.60;;;12.27;;
71777;SDS011;59609;52.430;4.668;2024-01-11T03:45:48;31.00;;;11.65;;
71777;SDS011;59609;52.430;4.668;2024-01-11T03:48:13;32.55;;;12.48;;
71777;SDS011;59609;52.430;4.668;2024-01-11T03:50:38;30.08;;;12.35;;
71777;SDS011;59609;52.430;4.668;2024-01-11T03:53:04;31.35;;;12.23;;
71777;SDS011;59609;52.430;4.668;2024-01-11T03:55:29;35.10;;;12.65;;
71777;SDS011;59609;52.430;4.668;2024-01-11T03:57:54;27.23;;;10.40;;
71777;SDS011;59609;52.430;4.668;2024-01-11T04:00:20;30.08;;;11.95;;
71777;SDS011;59609;52.430;4.668;2024-01-11T04:02:45;34.00;;;12.80;;
71777;SDS011;59609;52.430;4.668;2024-01-11T04:05:11;30.00;;;11.13;;
71777;SDS011;59609;52.430;4.668;2024-01-11T04:07:36;31.83;;;11.77;;
71777;SDS011;59609;52.430;4.668;2024-01-11T04:10:02;33.50;;;12.18;;
71777;SDS011;59609;52.430;4.668;2024-01-11T04:12:27;28.25;;;11.02;;
71777;SDS011;59609;52.430;4.668;2024-01-11T04:14:52;36.50;;;13.70;;
71777;SDS011;59609;52.430;4.668;2024-01-11T04:17:18;30.00;;;11.38;;
71777;SDS011;59609;52.430;4.668;2024-01-11T04:19:43;31.55;;;12.65;;
71777;SDS011;59609;52.430;4.668;2024-01-11T04:22:08;33.33;;;12.10;;
71777;SDS011;59609;52.430;4.668;2024-01-11T04:24:34;32.15;;;13.27;;
71777;SDS011;59609;52.430;4.668;2024-01-11T04:26:59;28.77;;;12.25;;
71777;SDS011;59609;52.430;4.668;2024-01-11T04:29:24;32.78;;;11.57;;
71777;SDS011;59609;52.430;4.668;2024-01-11T04:31:50;38.53;;;13.13;;
71777;SDS011;59609;52.430;4.668;2024-01-11T04:34:15;34.53;;;12.77;;
71777;SDS011;59609;52.430;4.668;2024-01-11T04:36:40;37.10;;;13.75;;
71777;SDS011;59609;52.430;4.668;2024-01-11T04:39:06;32.53;;;12.55;;
71777;SDS011;59609;52.430;4.668;2024-01-11T04:41:33;34.70;;;12.77;;
71777;SDS011;59609;52.430;4.668;2024-01-11T04:44:00;35.30;;;13.18;;
71777;SDS011;59609;52.430;4.668;2024-01-11T04:46:26;34.28;;;13.88;;
71777;SDS011;59609;52.430;4.668;2024-01-11T04:48:51;35.10;;;12.55;;
71777;SDS011;59609;52.430;4.668;2024-01-11T04:51:17;37.50;;;14.00;;
71777;SDS011;59609;52.430;4.668;2024-01-11T04:53:43;39.20;;;13.13;;
71777;SDS011;59609;52.430;4.668;2024-01-11T04:56:10;33.92;;;13.52;;
71777;SDS011;59609;52.430;4.668;2024-01-11T04:58:38;41.20;;;14.38;;
71777;SDS011;59609;52.430;4.668;2024-01-11T05:01:05;35.38;;;13.02;;
71777;SDS011;59609;52.430;4.668;2024-01-11T05:03:31;31.48;;;11.90;;
71777;SDS011;59609;52.430;4.668;2024-01-11T05:05:57;38.63;;;14.30;;
71777;SDS011;59609;52.430;4.668;2024-01-11T05:08:23;29.13;;;12.52;;
71777;SDS011;59609;52.430;4.668;2024-01-11T05:10:49;35.53;;;13.77;;
71777;SDS011;59609;52.430;4.668;2024-01-11T05:13:15;34.13;;;12.85;;
71777;SDS011;59609;52.430;4.668;2024-01-11T05:15:41;33.05;;;13.05;;
71777;SDS011;59609;52.430;4.668;2024-01-11T05:18:06;34.67;;;13.75;;
71777;SDS011;59609;52.430;4.668;2024-01-11T05:20:31;33.95;;;13.38;;
71777;SDS011;59609;52.430;4.668;2024-01-11T05:22:57;35.92;;;12.65;;
71777;SDS011;59609;52.430;4.668;2024-01-11T05:25:22;37.90;;;13.40;;
71777;SDS011;59609;52.430;4.668;2024-01-11T05:27:47;38.00;;;13.77;;
71777;SDS011;59609;52.430;4.668;2024-01-11T05:30:13;35.35;;;13.20;;
71777;SDS011;59609;52.430;4.668;2024-01-11T05:32:38;35.63;;;13.77;;
71777;SDS011;59609;52.430;4.668;2024-01-11T05:35:03;40.25;;;13.63;;
71777;SDS011;59609;52.430;4.668;2024-01-11T05:37:29;37.67;;;14.15;;
71777;SDS011;59609;52.430;4.668;2024-01-11T05:39:54;30.15;;;13.25;;
71777;SDS011;59609;52.430;4.668;2024-01-11T05:42:22;36.38;;;13.00;;
71777;SDS011;59609;52.430;4.668;2024-01-11T05:44:48;39.33;;;14.82;;
71777;SDS011;59609;52.430;4.668;2024-01-11T05:47:13;31.08;;;13.30;;
71777;SDS011;59609;52.430;4.668;2024-01-11T05:49:38;40.72;;;15.10;;
71777;SDS011;59609;52.430;4.668;2024-01-11T05:52:05;35.72;;;13.85;;
71777;SDS011;59609;52.430;4.668;2024-01-11T05:54:30;42.70;;;14.68;;
71777;SDS011;59609;52.430;4.668;2024-01-11T05:56:56;38.88;;;14.85;;
71777;SDS011;59609;52.430;4.668;2024-01-11T05:59:23;38.22;;;13.68;;
71777;SDS011;59609;52.430;4.668;2024-01-11T06:01:48;39.53;;;14.15;;
71777;SDS011;59609;52.430;4.668;2024-01-11T06:04:13;35.60;;;12.38;;
71777;SDS011;59609;52.430;4.668;2024-01-11T06:06:39;39.08;;;14.18;;
71777;SDS011;59609;52.430;4.668;2024-01-11T06:09:05;36.35;;;13.27;;
71777;SDS011;59609;52.430;4.668;2024-01-11T06:11:31;35.60;;;11.57;;
71777;SDS011;59609;52.430;4.668;2024-01-11T06:13:56;34.25;;;13.60;;
71777;SDS011;59609;52.430;4.668;2024-01-11T06:16:22;39.35;;;14.38;;
71777;SDS011;59609;52.430;4.668;2024-01-11T06:18:47;38.85;;;15.10;;
71777;SDS011;59609;52.430;4.668;2024-01-11T06:21:13;37.45;;;13.93;;
71777;SDS011;59609;52.430;4.668;2024-01-11T06:23:40;35.15;;;13.95;;
71777;SDS011;59609;52.430;4.668;2024-01-11T06:26:05;35.25;;;13.98;;
71777;SDS011;59609;52.430;4.668;2024-01-11T06:28:32;38.20;;;14.30;;
71777;SDS011;59609;52.430;4.668;2024-01-11T06:30:57;35.53;;;14.07;;
71777;SDS011;59609;52.430;4.668;2024-01-11T06:33:23;40.17;;;14.90;;
71777;SDS011;59609;52.430;4.668;2024-01-11T06:35:48;35.63;;;14.50;;
71777;SDS011;59609;52.430;4.668;2024-01-11T06:38:13;39.40;;;15.40;;
71777;SDS011;59609;52.430;4.668;2024-01-11T06:40:39;36.42;;;14.63;;
71777;SDS011;59609;52.430;4.668;2024-01-11T06:43:04;33.22;;;14.88;;
71777;SDS011;59609;52.430;4.668;2024-01-11T06:45:30;39.75;;;14.85;;
71777;SDS011;59609;52.430;4.668;2024-01-11T06:47:55;41.63;;;16.42;;
71777;SDS011;59609;52.430;4.668;2024-01-11T06:50:22;37.10;;;13.50;;
71777;SDS011;59609;52.430;4.668;2024-01-11T06:52:47;39.03;;;14.75;;
71777;SDS011;59609;52.430;4.668;2024-01-11T06:55:12;38.50;;;14.80;;
71777;SDS011;59609;52.430;4.668;2024-01-11T06:57:38;33.45;;;14.68;;
71777;SDS011;59609;52.430;4.668;2024-01-11T07:00:03;35.17;;;15.13;;
71777;SDS011;59609;52.430;4.668;2024-01-11T07:02:29;35.35;;;13.65;;
71777;SDS011;59609;52.430;4.668;2024-01-11T07:04:54;36.65;;;14.43;;
71777;SDS011;59609;52.430;4.668;2024-01-11T07:07:20;37.72;;;13.88;;
71777;SDS011;59609;52.430;4.668;2024-01-11T07:09:45;38.38;;;14.70;;
71777;SDS011;59609;52.430;4.668;2024-01-11T07:12:11;38.10;;;14.18;;
71777;SDS011;59609;52.430;4.668;2024-01-11T07:14:36;36.65;;;15.85;;
71777;SDS011;59609;52.430;4.668;2024-01-11T07:17:01;38.78;;;14.73;;
71777;SDS011;59609;52.430;4.668;2024-01-11T07:19:28;35.03;;;14.48;;
71777;SDS011;59609;52.430;4.668;2024-01-11T07:21:54;38.10;;;13.50;;
71777;SDS011;59609;52.430;4.668;2024-01-11T07:24:19;35.88;;;13.60;;
71777;SDS011;59609;52.430;4.668;2024-01-11T07:26:44;33.05;;;14.23;;
71777;SDS011;59609;52.430;4.668;2024-01-11T07:29:10;39.40;;;15.13;;
71777;SDS011;59609;52.430;4.668;2024-01-11T07:31:35;40.08;;;14.55;;
71777;SDS011;59609;52.430;4.668;2024-01-11T07:34:00;35.80;;;14.50;;
71777;SDS011;59609;52.430;4.668;2024-01-11T07:36:26;40.60;;;14.18;;
71777;SDS011;59609;52.430;4.668;2024-01-11T07:38:52;31.98;;;14.02;;
71777;SDS011;59609;52.430;4.668;2024-01-11T07:41:18;36.28;;;14.43;;
71777;SDS011;59609;52.430;4.668;2024-01-11T07:43:43;36.80;;;13.45;;
71777;SDS011;59609;52.430;4.668;2024-01-11T07:46:09;31.08;;;14.05;;
71777;SDS011;59609;52.430;4.668;2024-01-11T07:48:34;34.67;;;13.20;;
71777;SDS011;59609;52.430;4.668;2024-01-11T07:51:00;32.15;;;13.75;;
71777;SDS011;59609;52.430;4.668;2024-01-11T07:53:25;32.17;;;13.38;;
71777;SDS011;59609;52.430;4.668;2024-01-11T07:55:53;32.92;;;14.13;;
71777;SDS011;59609;52.430;4.668;2024-01-11T07:58:19;35.25;;;14.00;;
71777;SDS011;59609;52.430;4.668;2024-01-11T08:00:46;33.90;;;13.45;;
71777;SDS011;59609;52.430;4.668;2024-01-11T08:03:13;37.00;;;13.65;;
71777;SDS011;59609;52.430;4.668;2024-01-11T08:05:38;33.38;;;14.63;;
71777;SDS011;59609;52.430;4.668;2024-01-11T08:08:04;31.23;;;13.10;;
71777;SDS011;59609;52.430;4.668;2024-01-11T08:10:29;30.83;;;13.50;;
71777;SDS011;59609;52.430;4.668;2024-01-11T08:12:58;35.40;;;14.48;;
71777;SDS011;59609;52.430;4.668;2024-01-11T08:15:25;37.42;;;14.50;;
71777;SDS011;59609;52.430;4.668;2024-01-11T08:17:50;31.35;;;13.98;;
71777;SDS011;59609;52.430;4.668;2024-01-11T08:20:15;35.25;;;13.85;;
71777;SDS011;59609;52.430;4.668;2024-01-11T08:22:44;30.02;;;12.63;;
71777;SDS011;59609;52.430;4.668;2024-01-11T08:25:11;29.48;;;12.55;;
71777;SDS011;59609;52.430;4.668;2024-01-11T08:27:38;32.85;;;13.25;;
71777;SDS011;59609;52.430;4.668;2024-01-11T08:30:04;31.55;;;11.90;;
71777;SDS011;59609;52.430;4.668;2024-01-11T08:32:30;30.65;;;12.77;;
71777;SDS011;59609;52.430;4.668;2024-01-11T08:34:56;33.47;;;13.90;;
71777;SDS011;59609;52.430;4.668;2024-01-11T08:37:22;28.00;;;11.52;;
71777;SDS011;59609;52.430;4.668;2024-01-11T08:39:48;27.83;;;12.70;;
71777;SDS011;59609;52.430;4.668;2024-01-11T08:42:14;26.92;;;11.80;;
71777;SDS011;59609;52.430;4.668;2024-01-11T08:44:43;27.27;;;12.15;;
71777;SDS011;59609;52.430;4.668;2024-01-11T08:47:09;31.58;;;12.95;;
71777;SDS011;59609;52.430;4.668;2024-01-11T08:49:40;28.30;;;12.55;;
71777;SDS011;59609;52.430;4.668;2024-01-11T08:52:07;27.95;;;11.82;;
71777;SDS011;59609;52.430;4.668;2024-01-11T08:54:33;25.20;;;11.73;;
71777;SDS011;59609;52.430;4.668;2024-01-11T08:56:58;25.63;;;11.88;;
71777;SDS011;59609;52.430;4.668;2024-01-11T08:59:24;28.45;;;11.73;;
71777;SDS011;59609;52.430;4.668;2024-01-11T09:01:50;26.45;;;12.27;;
71777;SDS011;59609;52.430;4.668;2024-01-11T09:04:16;26.35;;;10.70;;
71777;SDS011;59609;52.430;4.668;2024-01-11T09:06:42;26.23;;;11.52;;
71777;SDS011;59609;52.430;4.668;2024-01-11T09:09:08;26.45;;;11.48;;
71777;SDS011;59609;52.430;4.668;2024-01-11T09:11:35;28.77;;;11.82;;
71777;SDS011;59609;52.430;4.668;2024-01-11T09:14:00;24.35;;;11.88;;
71777;SDS011;59609;52.430;4.668;2024-01-11T09:16:28;26.60;;;12.43;;
71777;SDS011;59609;52.430;4.668;2024-01-11T09:18:53;22.95;;;11.65;;
71777;SDS011;59609;52.430;4.668;2024-01-11T09:21:19;28.05;;;11.82;;
71777;SDS011;59609;52.430;4.668;2024-01-11T09:23:44;25.40;;;10.55;;
71777;SDS011;59609;52.430;4.668;2024-01-11T09:26:09;26.52;;;11.93;;
71777;SDS011;59609;52.430;4.668;2024-01-11T09:28:35;25.85;;;12.00;;
71777;SDS011;59609;52.430;4.668;2024-01-11T09:31:01;24.23;;;10.90;;
71777;SDS011;59609;52.430;4.668;2024-01-11T09:33:27;26.90;;;11.27;;
71777;SDS011;59609;52.430;4.668;2024-01-11T09:35:53;25.25;;;11.70;;
71777;SDS011;59609;52.430;4.668;2024-01-11T09:38:19;24.48;;;10.95;;
71777;SDS011;59609;52.430;4.668;2024-01-11T09:40:45;22.67;;;11.23;;
71777;SDS011;59609;52.430;4.668;2024-01-11T09:43:11;23.02;;;10.65;;
71777;SDS011;59609;52.430;4.668;2024-01-11T09:45:37;22.67;;;10.35;;
71777;SDS011;59609;52.430;4.668;2024-01-11T09:48:03;21.55;;;10.57;;
71777;SDS011;59609;52.430;4.668;2024-01-11T09:50:31;22.30;;;11.02;;
71777;SDS011;59609;52.430;4.668;2024-01-11T09:52:57;23.30;;;11.20;;
71777;SDS011;59609;52.430;4.668;2024-01-11T09:55:23;22.15;;;11.13;;
71777;SDS011;59609;52.430;4.668;2024-01-11T09:57:49;26.27;;;11.00;;
71777;SDS011;59609;52.430;4.668;2024-01-11T10:00:22;20.77;;;9.05;;
71777;SDS011;59609;52.430;4.668;2024-01-11T10:02:48;20.73;;;9.52;;
71777;SDS011;59609;52.430;4.668;2024-01-11T10:05:15;20.23;;;9.93;;
71777;SDS011;59609;52.430;4.668;2024-01-11T10:07:42;19.98;;;8.95;;
71777;SDS011;59609;52.430;4.668;2024-01-11T10:10:08;20.52;;;10.40;;
71777;SDS011;59609;52.430;4.668;2024-01-11T10:12:36;18.08;;;9.30;;
71777;SDS011;59609;52.430;4.668;2024-01-11T10:15:07;21.00;;;10.90;;
71777;SDS011;59609;52.430;4.668;2024-01-11T10:17:34;25.25;;;10.80;;
71777;SDS011;59609;52.430;4.668;2024-01-11T10:20:08;22.38;;;10.68;;
71777;SDS011;59609;52.430;4.668;2024-01-11T10:22:35;23.40;;;10.60;;
71777;SDS011;59609;52.430;4.668;2024-01-11T10:25:10;19.50;;;9.75;;
71777;SDS011;59609;52.430;4.668;2024-01-11T10:27:39;22.38;;;10.48;;
71777;SDS011;59609;52.430;4.668;2024-01-11T10:30:07;20.67;;;10.05;;
71777;SDS011;59609;52.430;4.668;2024-01-11T10:32:33;18.83;;;8.95;;
71777;SDS011;59609;52.430;4.668;2024-01-11T10:34:59;17.75;;;9.43;;
71777;SDS011;59609;52.430;4.668;2024-01-11T10:37:26;19.92;;;9.63;;
71777;SDS011;59609;52.430;4.668;2024-01-11T10:39:53;20.00;;;9.77;;
71777;SDS011;59609;52.430;4.668;2024-01-11T10:42:22;19.80;;;10.13;;
71777;SDS011;59609;52.430;4.668;2024-01-11T10:44:49;18.20;;;9.18;;
71777;SDS011;59609;52.430;4.668;2024-01-11T10:47:20;17.58;;;8.88;;
71777;SDS011;59609;52.430;4.668;2024-01-11T10:49:49;19.95;;;9.55;;
71777;SDS011;59609;52.430;4.668;2024-01-11T10:52:17;18.15;;;9.35;;
71777;SDS011;59609;52.430;4.668;2024-01-11T10:54:47;17.35;;;8.93;;
71777;SDS011;59609;52.430;4.668;2024-01-11T10:57:15;17.73;;;8.85;;
71777;SDS011;59609;52.430;4.668;2024-01-11T10:59:41;17.50;;;9.05;;
71777;SDS011;59609;52.430;4.668;2024-01-11T11:02:08;18.25;;;9.73;;
71777;SDS011;59609;52.430;4.668;2024-01-11T11:04:38;18.10;;;8.93;;
71777;SDS011;59609;52.430;4.668;2024-01-11T11:07:03;17.17;;;9.20;;
71777;SDS011;59609;52.430;4.668;2024-01-11T11:09:32;18.02;;;9.00;;
71777;SDS011;59609;52.430;4.668;2024-01-11T11:12:00;19.10;;;9.25;;
71777;SDS011;59609;52.430;4.668;2024-01-11T11:14:26;16.73;;;8.25;;
71777;SDS011;59609;52.430;4.668;2024-01-11T11:16:53;16.65;;;8.45;;
71777;SDS011;59609;52.430;4.668;2024-01-11T11:19:19;13.73;;;8.07;;
71777;SDS011;59609;52.430;4.668;2024-01-11T11:21:47;15.50;;;8.38;;
71777;SDS011;59609;52.430;4.668;2024-01-11T11:24:13;18.48;;;9.05;;
71777;SDS011;59609;52.430;4.668;2024-01-11T11:26:38;17.90;;;9.82;;
71777;SDS011;59609;52.430;4.668;2024-01-11T11:29:04;16.77;;;8.57;;
71777;SDS011;59609;52.430;4.668;2024-01-11T11:31:37;21.08;;;9.25;;
71777;SDS011;59609;52.430;4.668;2024-01-11T11:34:06;18.63;;;9.40;;
71777;SDS011;59609;52.430;4.668;2024-01-11T11:36:33;20.15;;;9.15;;
71777;SDS011;59609;52.430;4.668;2024-01-11T11:38:59;15.63;;;8.80;;
71777;SDS011;59609;52.430;4.668;2024-01-11T11:41:26;18.58;;;9.15;;
71777;SDS011;59609;52.430;4.668;2024-01-11T11:43:52;19.40;;;8.85;;
71777;SDS011;59609;52.430;4.668;2024-01-11T11:46:18;16.58;;;7.32;;
71777;SDS011;59609;52.430;4.668;2024-01-11T11:48:47;17.05;;;8.52;;
71777;SDS011;59609;52.430;4.668;2024-01-11T11:51:15;16.17;;;7.60;;
71777;SDS011;59609;52.430;4.668;2024-01-11T11:53:41;13.10;;;7.90;;
71777;SDS011;59609;52.430;4.668;2024-01-11T11:56:08;14.93;;;8.05;;
71777;SDS011;59609;52.430;4.668;2024-01-11T11:58:42;16.48;;;9.05;;
71777;SDS011;59609;52.430;4.668;2024-01-11T12:01:10;14.45;;;7.93;;
71777;SDS011;59609;52.430;4.668;2024-01-11T12:03:37;15.88;;;8.38;;
71777;SDS011;59609;52.430;4.668;2024-01-11T12:06:04;14.57;;;8.10;;
71777;SDS011;59609;52.430;4.668;2024-01-11T12:08:34;15.82;;;7.38;;
71777;SDS011;59609;52.430;4.668;2024-01-11T12:11:00;14.88;;;7.07;;
71777;SDS011;59609;52.430;4.668;2024-01-11T12:13:25;17.20;;;7.78;;
71777;SDS011;59609;52.430;4.668;2024-01-11T12:15:51;16.85;;;8.07;;
71777;SDS011;59609;52.430;4.668;2024-01-11T12:18:17;14.02;;;7.22;;
71777;SDS011;59609;52.430;4.668;2024-01-11T12:20:42;13.63;;;6.20;;
71777;SDS011;59609;52.430;4.668;2024-01-11T12:23:08;12.88;;;7.78;;
71777;SDS011;59609;52.430;4.668;2024-01-11T12:25:34;14.85;;;8.15;;
71777;SDS011;59609;52.430;4.668;2024-01-11T12:28:03;17.50;;;8.23;;
71777;SDS011;59609;52.430;4.668;2024-01-11T12:30:31;16.15;;;7.13;;
71777;SDS011;59609;52.430;4.668;2024-01-11T12:32:56;12.88;;;7.72;;
71777;SDS011;59609;52.430;4.668;2024-01-11T12:35:22;13.02;;;7.50;;
71777;SDS011;59609;52.430;4.668;2024-01-11T12:37:55;15.30;;;7.47;;
71777;SDS011;59609;52.430;4.668;2024-01-11T12:40:23;14.98;;;8.02;;
71777;SDS011;59609;52.430;4.668;2024-01-11T12:42:49;16.83;;;8.30;;
71777;SDS011;59609;52.430;4.668;2024-01-11T12:45:15;13.40;;;7.63;;
71777;SDS011;59609;52.430;4.668;2024-01-11T12:47:41;14.20;;;7.38;;
71777;SDS011;59609;52.430;4.668;2024-01-11T12:50:07;13.20;;;7.75;;
71777;SDS011;59609;52.430;4.668;2024-01-11T12:52:32;18.20;;;9.30;;
71777;SDS011;59609;52.430;4.668;2024-01-11T12:54:58;16.30;;;8.63;;
71777;SDS011;59609;52.430;4.668;2024-01-11T12:57:24;14.75;;;7.68;;
71777;SDS011;59609;52.430;4.668;2024-01-11T12:59:50;15.23;;;7.82;;
71777;SDS011;59609;52.430;4.668;2024-01-11T13:02:16;13.50;;;7.70;;
71777;SDS011;59609;52.430;4.668;2024-01-11T13:04:44;15.25;;;7.43;;
71777;SDS011;59609;52.430;4.668;2024-01-11T13:07:11;14.73;;;7.90;;
71777;SDS011;59609;52.430;4.668;2024-01-11T13:09:40;13.35;;;7.50;;
71777;SDS011;59609;52.430;4.668;2024-01-11T13:12:06;13.13;;;6.93;;
71777;SDS011;59609;52.430;4.668;2024-01-11T13:14:32;12.90;;;7.43;;
71777;SDS011;59609;52.430;4.668;2024-01-11T13:16:57;14.10;;;7.20;;
71777;SDS011;59609;52.430;4.668;2024-01-11T13:19:24;13.13;;;7.40;;
71777;SDS011;59609;52.430;4.668;2024-01-11T13:21:49;11.50;;;6.22;;
71777;SDS011;59609;52.430;4.668;2024-01-11T13:24:15;12.70;;;5.90;;
71777;SDS011;59609;52.430;4.668;2024-01-11T13:26:40;12.88;;;6.90;;
71777;SDS011;59609;52.430;4.668;2024-01-11T13:29:06;12.95;;;5.78;;
71777;SDS011;59609;52.430;4.668;2024-01-11T13:31:34;13.13;;;7.03;;
71777;SDS011;59609;52.430;4.668;2024-01-11T13:33:59;11.90;;;6.53;;
71777;SDS011;59609;52.430;4.668;2024-01-11T13:36:25;11.77;;;5.90;;
71777;SDS011;59609;52.430;4.668;2024-01-11T13:38:50;12.10;;;6.43;;
71777;SDS011;59609;52.430;4.668;2024-01-11T13:41:17;10.77;;;5.55;;
71777;SDS011;59609;52.430;4.668;2024-01-11T13:43:43;11.30;;;6.30;;
71777;SDS011;59609;52.430;4.668;2024-01-11T13:46:08;12.18;;;6.78;;
71777;SDS011;59609;52.430;4.668;2024-01-11T13:48:36;10.15;;;6.03;;
71777;SDS011;59609;52.430;4.668;2024-01-11T13:51:03;10.85;;;5.75;;
71777;SDS011;59609;52.430;4.668;2024-01-11T13:53:29;11.95;;;6.22;;
71777;SDS011;59609;52.430;4.668;2024-01-11T13:55:54;10.95;;;6.05;;
71777;SDS011;59609;52.430;4.668;2024-01-11T13:58:20;11.75;;;5.68;;
71777;SDS011;59609;52.430;4.668;2024-01-11T14:00:46;10.10;;;5.05;;
71777;SDS011;59609;52.430;4.668;2024-01-11T14:03:11;13.23;;;6.57;;
71777;SDS011;59609;52.430;4.668;2024-01-11T14:05:37;11.70;;;6.35;;
71777;SDS011;59609;52.430;4.668;2024-01-11T14:08:03;12.02;;;6.80;;
71777;SDS011;59609;52.430;4.668;2024-01-11T14:10:31;14.00;;;6.65;;
71777;SDS011;59609;52.430;4.668;2024-01-11T14:13:00;14.90;;;6.75;;
71777;SDS011;59609;52.430;4.668;2024-01-11T14:15:26;10.25;;;6.40;;
71777;SDS011;59609;52.430;4.668;2024-01-11T14:17:52;12.05;;;5.82;;
71777;SDS011;59609;52.430;4.668;2024-01-11T14:20:17;12.02;;;6.60;;
71777;SDS011;59609;52.430;4.668;2024-01-11T14:22:43;13.60;;;6.70;;